createdAt,value
2022-08-17T00:00:07.346Z,75.76
2022-08-17T00:02:59.011Z,75.90
2022-08-17T00:05:26.324Z,75.92
2022-08-17T00:07:53.055Z,75.70
2022-08-17T00:10:20.403Z,75.59
2022-08-17T00:12:47.240Z,75.72
2022-08-17T00:15:15.128Z,75.67
2022-08-17T00:17:45.551Z,75.60
2022-08-17T00:20:13.407Z,75.56
2022-08-17T00:22:41.801Z,75.61
2022-08-17T00:25:13.037Z,75.57
2022-08-17T00:27:40.400Z,75.66
2022-08-17T00:30:10.653Z,75.54
2022-08-17T00:33:14.350Z,75.74
2022-08-17T00:35:31.241Z,75.86
2022-08-17T00:37:58.574Z,76.02
2022-08-17T00:40:25.374Z,76.32
2022-08-17T00:42:53.363Z,76.38
2022-08-17T00:45:20.953Z,76.50
2022-08-17T00:47:47.794Z,76.70
2022-08-17T00:50:18.167Z,76.70
2022-08-17T00:52:52.569Z,76.90
2022-08-17T00:55:21.053Z,76.84
2022-08-17T00:57:55.207Z,76.99
2022-08-17T01:00:29.174Z,77.29
2022-08-17T01:03:02.368Z,77.52
2022-08-17T01:05:31.713Z,77.43
2022-08-17T01:08:00.293Z,77.68
2022-08-17T01:10:58.797Z,77.91
2022-08-17T01:13:36.793Z,78.15
2022-08-17T01:16:28.337Z,78.28
2022-08-17T01:19:02.105Z,78.51
2022-08-17T01:21:47.545Z,78.96
2022-08-17T01:24:14.955Z,79.50
2022-08-17T01:26:44.956Z,79.83
2022-08-17T01:29:12.959Z,79.88
2022-08-17T01:31:45.216Z,80.03
2022-08-17T01:34:14.725Z,80.05
2022-08-17T01:36:46.056Z,80.03
2022-08-17T01:39:23.554Z,80.13
2022-08-17T01:41:53.653Z,80.22
2022-08-17T01:44:21.852Z,80.54
2022-08-17T01:46:48.831Z,80.69
2022-08-17T01:49:15.845Z,80.60
2022-08-17T01:51:42.898Z,80.84
2022-08-17T01:54:13.954Z,80.98
2022-08-17T01:56:44.519Z,81.44
2022-08-17T01:59:15.044Z,81.74
2022-08-17T02:01:43.531Z,82.07
2022-08-17T02:04:11.498Z,82.28
2022-08-17T02:06:44.903Z,82.43
2022-08-17T02:09:25.291Z,82.50
2022-08-17T02:11:57.112Z,82.46
2022-08-17T02:14:25.727Z,82.54
2022-08-17T02:16:53.445Z,82.72
2022-08-17T02:19:23.069Z,83.01
2022-08-17T02:21:51.845Z,83.04
2022-08-17T02:24:58.356Z,83.03
2022-08-17T02:27:15.055Z,82.90
2022-08-17T02:29:42.067Z,82.93
2022-08-17T02:32:20.926Z,82.87
2022-08-17T02:34:55.022Z,82.77
2022-08-17T02:37:22.531Z,82.72
2022-08-17T02:39:49.175Z,82.82
2022-08-17T02:42:16.105Z,82.83
2022-08-17T02:44:43.261Z,82.69
2022-08-17T02:47:11.148Z,82.68
2022-08-17T02:49:40.063Z,82.79
2022-08-17T02:52:08.166Z,83.05
2022-08-17T02:54:40.154Z,83.34
2022-08-17T02:57:10.581Z,83.24
2022-08-17T02:59:39.565Z,83.27
2022-08-17T03:02:08.706Z,83.21
2022-08-17T03:04:35.725Z,83.09
2022-08-17T03:07:04.248Z,83.27
2022-08-17T03:09:31.391Z,83.41
2022-08-17T03:12:06.386Z,83.59
2022-08-17T03:14:35.995Z,83.50
2022-08-17T03:17:05.706Z,83.53
2022-08-17T03:19:32.703Z,83.54
2022-08-17T03:21:59.680Z,83.92
2022-08-17T03:24:46.582Z,84.12
2022-08-17T03:27:16.804Z,84.41
2022-08-17T03:29:43.862Z,84.65
2022-08-17T03:32:15.825Z,84.75
2022-08-17T03:34:43.109Z,84.93
2022-08-17T03:37:10.119Z,85.08
2022-08-17T03:39:37.049Z,85.33
2022-08-17T03:42:09.047Z,85.67
2022-08-17T03:44:58.192Z,85.82
2022-08-17T03:47:43.943Z,86.07
2022-08-17T03:50:31.360Z,86.11
2022-08-17T03:53:17.579Z,86.31
2022-08-17T03:56:03.152Z,86.69
2022-08-17T03:58:30.193Z,86.91
2022-08-17T04:00:59.117Z,86.94
2022-08-17T04:03:26.090Z,86.89
2022-08-17T04:05:53.185Z,87.02
2022-08-17T04:08:20.896Z,87.15
2022-08-17T04:10:47.957Z,87.39
2022-08-17T04:13:15.060Z,87.70
2022-08-17T04:15:51.259Z,87.76
2022-08-17T04:18:18.557Z,87.90
2022-08-17T04:20:46.940Z,87.86
2022-08-17T04:23:17.057Z,87.91
2022-08-17T04:25:48.223Z,87.97
2022-08-17T04:28:16.633Z,87.89
2022-08-17T04:30:45.090Z,88.03
2022-08-17T04:33:15.581Z,88.33
2022-08-17T04:35:52.068Z,88.56
2022-08-17T04:38:21.872Z,88.68
2022-08-17T04:41:07.944Z,88.67
2022-08-17T04:43:36.145Z,88.62
2022-08-17T04:46:08.465Z,88.51
2022-08-17T04:48:42.623Z,88.24
2022-08-17T04:51:15.752Z,88.16
2022-08-17T04:53:45.505Z,88.10
2022-08-17T04:56:21.841Z,87.90
2022-08-17T04:58:50.825Z,87.76
2022-08-17T05:01:23.062Z,87.57
2022-08-17T05:03:50.324Z,87.81
2022-08-17T05:06:17.718Z,87.54
2022-08-17T05:08:44.981Z,87.38
2022-08-17T05:11:12.495Z,87.39
2022-08-17T05:13:39.222Z,87.05
2022-08-17T05:16:09.164Z,86.45
2022-08-17T05:18:37.249Z,86.51
2022-08-17T05:21:06.509Z,85.96
2022-08-17T05:23:42.240Z,85.39
2022-08-17T05:26:19.883Z,84.87
2022-08-17T05:28:52.680Z,84.15
2022-08-17T05:31:21.594Z,84.04
2022-08-17T05:33:49.529Z,83.76
2022-08-17T05:36:42.199Z,83.66
2022-08-17T05:39:04.554Z,83.28
2022-08-17T05:41:31.458Z,82.75
2022-08-17T05:43:58.558Z,81.59
2022-08-17T05:46:28.738Z,81.08
2022-08-17T05:49:10.959Z,80.50
2022-08-17T05:51:53.152Z,80.17
2022-08-17T05:54:50.815Z,79.11
2022-08-17T05:57:36.134Z,78.92
2022-08-17T06:00:15.763Z,78.19
2022-08-17T06:03:07.514Z,77.95
2022-08-17T06:05:58.399Z,78.03
2022-08-17T06:08:45.583Z,77.91
2022-08-17T06:11:37.300Z,77.56
2022-08-17T06:14:22.155Z,77.36
2022-08-17T06:16:55.470Z,76.64
2022-08-17T06:19:47.757Z,76.49
2022-08-17T06:22:19.239Z,76.09
2022-08-17T06:24:57.984Z,75.82
2022-08-17T06:27:48.718Z,75.97
2022-08-17T06:30:58.427Z,75.90
2022-08-17T06:33:34.989Z,75.91
2022-08-17T06:36:10.984Z,75.14
2022-08-17T06:38:55.678Z,74.13
2022-08-17T06:41:50.571Z,73.39
2022-08-17T06:44:49.660Z,72.73
2022-08-17T06:47:29.370Z,72.44
2022-08-17T06:50:03.508Z,72.00
2022-08-17T06:52:47.300Z,72.03
2022-08-17T06:55:26.400Z,71.71
2022-08-17T06:57:59.919Z,71.06
2022-08-17T07:00:33.641Z,70.74
2022-08-17T07:03:10.451Z,70.53
2022-08-17T07:05:53.767Z,70.29
2022-08-17T07:09:01.249Z,69.08
2022-08-17T07:11:38.090Z,68.40
2022-08-17T07:14:35.526Z,68.68
2022-08-17T07:17:09.054Z,68.09
2022-08-17T07:19:40.602Z,68.05
2022-08-17T07:22:57.620Z,67.64
2022-08-17T07:25:28.047Z,68.13
2022-08-17T07:27:59.749Z,67.46
2022-08-17T07:30:51.312Z,65.87
2022-08-17T07:33:28.208Z,65.24
2022-08-17T07:35:59.383Z,65.03
2022-08-17T07:38:28.631Z,64.63
2022-08-17T07:41:02.222Z,64.73
2022-08-17T07:43:41.614Z,64.23
2022-08-17T07:49:11.147Z,62.91
2022-08-17T07:51:45.562Z,62.68
2022-08-17T07:54:15.511Z,62.74
2022-08-17T07:56:47.314Z,62.66
2022-08-17T07:59:27.160Z,61.83
2022-08-17T08:01:58.354Z,61.46
2022-08-17T08:04:49.938Z,61.20
2022-08-17T08:07:27.321Z,60.61
2022-08-17T08:10:14.048Z,59.89
2022-08-17T08:13:12.247Z,59.08
2022-08-17T08:15:53.569Z,58.22
2022-08-17T08:18:38.678Z,57.85
2022-08-17T08:21:35.909Z,57.35
2022-08-17T08:24:40.524Z,56.58
2022-08-17T08:27:34.038Z,57.05
2022-08-17T08:30:07.365Z,57.13
2022-08-17T08:32:59.255Z,56.73
2022-08-17T08:35:54.315Z,55.44
2022-08-17T08:38:56.719Z,54.49
2022-08-17T08:41:51.472Z,54.52
2022-08-17T08:45:03.953Z,54.45
2022-08-17T08:47:45.080Z,53.97
2022-08-17T08:50:37.745Z,53.08
2022-08-17T08:53:24.409Z,52.62
2022-08-17T08:56:23.414Z,52.62
2022-08-17T08:59:02.296Z,50.33
2022-08-17T09:01:55.057Z,49.24
2022-08-17T09:05:02.764Z,48.06
2022-08-17T09:07:36.736Z,48.21
2022-08-17T09:10:13.810Z,47.49
2022-08-17T09:12:53.719Z,46.04
2022-08-17T09:15:27.413Z,47.30
2022-08-17T09:18:59.955Z,47.33
2022-08-17T09:21:21.582Z,46.58
2022-08-17T09:24:00.090Z,46.79
2022-08-17T09:26:35.102Z,46.89
2022-08-17T09:29:08.640Z,45.53
2022-08-17T09:31:48.783Z,46.07
2022-08-17T09:34:21.170Z,45.78
2022-08-17T09:36:58.777Z,45.14
2022-08-17T09:39:39.071Z,44.47
2022-08-17T09:42:14.897Z,43.54
2022-08-17T09:44:51.868Z,43.59
2022-08-17T09:47:45.931Z,43.71
2022-08-17T09:50:20.163Z,43.17
2022-08-17T09:53:08.254Z,41.83
2022-08-17T09:56:09.100Z,38.04
2022-08-17T09:58:56.310Z,39.15
2022-08-17T10:01:39.780Z,38.92
2022-08-17T10:04:20.413Z,38.40
2022-08-17T10:07:12.263Z,38.00
2022-08-17T10:09:45.092Z,37.90
2022-08-17T10:12:38.333Z,38.41
2022-08-17T10:15:22.678Z,37.37
2022-08-17T10:18:07.609Z,36.04
2022-08-17T10:20:46.569Z,35.63
2022-08-17T10:23:46.711Z,35.73
2022-08-17T10:26:19.284Z,34.81
2022-08-17T10:28:52.649Z,35.46
2022-08-17T10:31:34.866Z,35.24
2022-08-17T10:34:29.429Z,34.02
2022-08-17T10:37:19.627Z,34.01
2022-08-17T10:40:09.992Z,32.69
2022-08-17T10:42:51.884Z,32.89
2022-08-17T10:45:40.394Z,33.38
2022-08-17T10:48:07.593Z,32.45
2022-08-17T10:50:55.479Z,32.33
2022-08-17T10:53:40.948Z,31.92
2022-08-17T10:56:17.764Z,32.31
2022-08-17T10:58:53.983Z,30.46
2022-08-17T11:01:33.326Z,30.53
2022-08-17T11:04:06.028Z,30.71
2022-08-17T11:07:02.195Z,30.48
2022-08-17T11:10:16.623Z,30.45
2022-08-17T11:12:57.351Z,30.47
2022-08-17T11:15:39.516Z,30.86
2022-08-17T11:18:44.319Z,31.02
2022-08-17T11:21:29.948Z,31.60
2022-08-17T11:24:06.071Z,30.87
2022-08-17T11:26:36.099Z,31.12
2022-08-17T11:29:09.579Z,31.84
2022-08-17T11:31:39.899Z,30.12
2022-08-17T11:34:13.506Z,30.61
2022-08-17T11:36:51.933Z,30.42
2022-08-17T11:39:44.508Z,30.14
2022-08-17T11:42:48.992Z,28.81
2022-08-17T11:45:38.584Z,28.88
2022-08-17T11:48:46.370Z,29.02
2022-08-17T11:51:46.386Z,29.51
2022-08-17T11:54:33.205Z,28.68
2022-08-17T11:57:21.643Z,30.00
2022-08-17T12:00:02.044Z,30.00
2022-08-17T12:02:31.427Z,29.16
2022-08-17T12:05:04.719Z,29.31
2022-08-17T12:07:49.097Z,28.99
2022-08-17T12:10:22.734Z,29.53
2022-08-17T12:12:54.045Z,28.45
2022-08-17T12:15:35.432Z,28.14
2022-08-17T12:18:02.381Z,26.59
2022-08-17T12:20:28.954Z,25.93
2022-08-17T12:23:34.094Z,25.95
2022-08-17T12:26:11.856Z,23.81
2022-08-17T12:28:44.229Z,23.61
2022-08-17T12:31:20.835Z,23.45
2022-08-17T12:33:49.922Z,23.90
2022-08-17T12:36:22.242Z,24.23
2022-08-17T12:38:57.225Z,23.00
2022-08-17T12:41:39.104Z,22.60
2022-08-17T12:44:09.521Z,22.33
2022-08-17T12:46:50.463Z,23.14
2022-08-17T12:49:23.036Z,22.90
2022-08-17T12:51:51.853Z,22.93
2022-08-17T12:54:50.378Z,23.24
2022-08-17T12:57:34.582Z,24.47
2022-08-17T13:00:20.686Z,24.85
2022-08-17T13:02:54.703Z,24.34
2022-08-17T13:05:27.651Z,25.38
2022-08-17T13:07:59.222Z,25.43
2022-08-17T13:10:34.967Z,25.61
2022-08-17T13:13:21.515Z,24.95
2022-08-17T13:15:55.283Z,24.73
2022-08-17T13:18:39.897Z,25.19
2022-08-17T13:21:18.935Z,24.45
2022-08-17T13:24:11.317Z,23.81
2022-08-17T13:26:54.506Z,22.37
2022-08-17T13:29:53.101Z,22.18
2022-08-17T13:32:31.017Z,21.47
2022-08-17T13:35:14.951Z,21.25
2022-08-17T13:37:57.818Z,21.08
2022-08-17T13:40:53.089Z,21.31
2022-08-17T13:43:49.816Z,21.93
2022-08-17T13:46:22.410Z,21.56
2022-08-17T13:49:21.011Z,21.21
2022-08-17T13:51:51.508Z,21.94
2022-08-17T13:54:30.245Z,22.74
2022-08-17T13:57:03.057Z,23.09
2022-08-17T13:59:53.678Z,23.19
2022-08-17T14:02:25.903Z,24.00
2022-08-17T14:04:55.594Z,24.23
2022-08-17T14:07:29.113Z,24.86
2022-08-17T14:10:01.086Z,24.98
2022-08-17T14:12:32.613Z,25.66
2022-08-17T14:14:59.825Z,25.86
2022-08-17T14:17:29.082Z,26.26
2022-08-17T14:19:55.896Z,26.63
2022-08-17T14:22:32.406Z,27.02
2022-08-17T14:25:01.788Z,27.30
2022-08-17T14:27:32.074Z,28.07
2022-08-17T14:29:59.272Z,28.65
2022-08-17T14:32:31.951Z,27.84
2022-08-17T14:34:59.941Z,28.78
2022-08-17T14:37:28.347Z,29.19
2022-08-17T14:39:57.073Z,29.97
2022-08-17T14:42:26.342Z,30.14
2022-08-17T14:44:55.522Z,30.61
2022-08-17T14:47:25.087Z,31.08
2022-08-17T14:49:53.032Z,31.19
2022-08-17T14:52:22.086Z,31.16
2022-08-17T14:54:53.316Z,31.34
2022-08-17T14:57:24.580Z,32.12
2022-08-17T14:59:55.437Z,33.75
2022-08-17T15:02:29.648Z,36.93
2022-08-17T15:05:04.336Z,38.07
2022-08-17T15:07:34.049Z,38.07
2022-08-17T15:10:02.142Z,38.41
2022-08-17T15:12:33.282Z,39.55
2022-08-17T15:15:05.395Z,40.46
2022-08-17T15:17:44.929Z,41.10
2022-08-17T15:20:20.865Z,43.14
2022-08-17T15:22:55.523Z,45.00
2022-08-17T15:25:24.212Z,44.06
2022-08-17T15:27:52.123Z,45.96
2022-08-17T15:30:19.892Z,46.35
2022-08-17T15:32:54.030Z,46.60
2022-08-17T15:35:27.338Z,47.80
2022-08-17T15:38:11.567Z,48.57
2022-08-17T15:40:43.117Z,49.25
2022-08-17T15:43:27.305Z,50.45
2022-08-17T15:46:22.484Z,50.12
2022-08-17T15:48:51.952Z,49.78
2022-08-17T15:51:26.322Z,49.91
2022-08-17T15:54:04.247Z,50.00
2022-08-17T15:56:47.463Z,49.46
2022-08-17T15:59:14.265Z,48.18
2022-08-17T16:03:12.972Z,47.20
2022-08-17T16:04:31.035Z,45.34
2022-08-17T16:06:59.819Z,43.06
2022-08-17T16:09:27.807Z,41.71
2022-08-17T16:11:56.062Z,40.59
2022-08-17T16:14:33.553Z,38.21
2022-08-17T16:17:03.044Z,37.05
2022-08-17T16:19:29.874Z,36.98
2022-08-17T16:21:56.932Z,37.55
2022-08-17T16:24:23.488Z,38.31
2022-08-17T16:26:50.278Z,38.95
2022-08-17T16:29:17.017Z,39.03
2022-08-17T16:31:43.687Z,38.75
2022-08-17T16:34:17.766Z,37.68
2022-08-17T16:36:55.221Z,38.69
2022-08-17T16:39:28.973Z,39.51
2022-08-17T16:41:56.174Z,39.94
2022-08-17T16:44:23.971Z,39.93
2022-08-17T16:46:50.749Z,40.46
2022-08-17T16:49:25.765Z,41.30
2022-08-17T16:52:06.074Z,41.55
2022-08-17T16:54:35.268Z,41.68
2022-08-17T16:57:04.878Z,40.53
2022-08-17T16:59:41.018Z,39.59
2022-08-17T17:02:17.294Z,38.42
2022-08-17T17:04:57.671Z,37.97
2022-08-17T17:07:36.719Z,37.72
2022-08-17T17:10:12.695Z,37.01
2022-08-17T17:13:03.660Z,35.98
2022-08-17T17:15:37.202Z,34.88
2022-08-17T17:18:07.235Z,35.29
2022-08-17T17:20:47.737Z,35.81
2022-08-17T17:23:41.140Z,36.90
2022-08-17T17:26:28.875Z,36.95
2022-08-17T17:29:14.677Z,37.56
2022-08-17T17:32:10.020Z,37.66
2022-08-17T17:34:39.720Z,37.26
2022-08-17T17:37:11.923Z,37.37
2022-08-17T17:39:46.470Z,37.21
2022-08-17T17:42:20.575Z,37.70
2022-08-17T17:45:06.787Z,38.09
2022-08-17T17:47:34.390Z,38.13
2022-08-17T17:50:02.588Z,38.36
2022-08-17T17:53:02.206Z,38.98
2022-08-17T17:55:55.228Z,39.98
2022-08-17T17:58:29.699Z,41.01
2022-08-17T18:01:17.283Z,42.03
2022-08-17T18:04:02.851Z,42.76
2022-08-17T18:06:46.915Z,44.03
2022-08-17T18:09:39.721Z,44.84
2022-08-17T18:12:29.330Z,45.88
2022-08-17T18:15:18.619Z,46.73
2022-08-17T18:18:37.766Z,47.64
2022-08-17T18:21:16.849Z,48.85
2022-08-17T18:24:04.952Z,49.40
2022-08-17T18:26:43.797Z,50.40
2022-08-17T18:29:37.508Z,51.05
2022-08-17T18:32:14.284Z,51.68
2022-08-17T18:34:49.701Z,52.14
2022-08-17T18:37:45.850Z,52.88
2022-08-17T18:40:22.080Z,53.50
2022-08-17T18:42:48.942Z,54.13
2022-08-17T18:45:30.710Z,54.49
2022-08-17T18:47:57.582Z,55.08
2022-08-17T18:50:41.227Z,55.56
2022-08-17T18:53:33.520Z,56.13
2022-08-17T18:56:23.088Z,56.66
2022-08-17T18:59:19.852Z,57.12
2022-08-17T19:05:26.499Z,58.18
2022-08-17T19:08:07.326Z,58.46
2022-08-17T19:10:46.478Z,59.23
2022-08-17T19:13:23.965Z,59.64
2022-08-17T19:16:18.840Z,60.18
2022-08-17T19:18:57.974Z,60.55
2022-08-17T19:21:33.592Z,61.02
2022-08-17T19:24:13.907Z,61.72
2022-08-17T19:26:54.159Z,62.12
2022-08-17T19:29:34.216Z,62.59
2022-08-17T19:32:01.733Z,63.07
2022-08-17T19:34:34.555Z,63.17
2022-08-17T19:37:21.132Z,63.61
2022-08-17T19:40:08.620Z,63.77
2022-08-17T19:42:50.341Z,64.41
2022-08-17T19:45:45.157Z,64.68
2022-08-17T19:48:38.120Z,64.66
2022-08-17T19:51:34.290Z,64.94
2022-08-17T19:54:06.423Z,65.19
2022-08-17T19:57:05.616Z,65.27
2022-08-17T19:59:53.854Z,65.95
2022-08-17T20:02:39.037Z,66.45
2022-08-17T20:05:15.312Z,66.62
2022-08-17T20:07:57.294Z,66.74
2022-08-17T20:10:35.301Z,66.95
2022-08-17T20:13:08.999Z,67.11
2022-08-17T20:15:40.520Z,67.29
2022-08-17T20:18:18.376Z,67.50
2022-08-17T20:20:50.990Z,67.66
2022-08-17T20:23:45.472Z,68.07
2022-08-17T20:26:44.422Z,68.41
2022-08-17T20:30:01.726Z,68.38
2022-08-17T20:32:33.710Z,68.67
2022-08-17T20:35:21.342Z,68.79
2022-08-17T20:38:02.681Z,69.31
2022-08-17T20:40:54.462Z,69.53
2022-08-17T20:43:43.611Z,69.66
2022-08-17T20:46:32.067Z,70.06
2022-08-17T20:49:17.673Z,70.14
2022-08-17T20:52:02.864Z,70.12
2022-08-17T20:54:41.945Z,70.28
2022-08-17T20:57:13.756Z,70.51
2022-08-17T20:59:44.158Z,70.81
2022-08-17T21:02:20.667Z,71.28
2022-08-17T21:04:50.730Z,71.35
2022-08-17T21:07:53.663Z,71.86
2022-08-17T21:10:26.332Z,72.26
2022-08-17T21:13:02.028Z,72.42
2022-08-17T21:16:00.044Z,72.91
2022-08-17T21:19:04.872Z,73.20
2022-08-17T21:21:59.522Z,73.28
2022-08-17T21:24:38.428Z,73.43
2022-08-17T21:27:05.814Z,73.53
2022-08-17T21:29:34.010Z,73.70
2022-08-17T21:32:05.490Z,73.79
2022-08-17T21:34:44.246Z,74.14
2022-08-17T21:37:20.244Z,74.12
2022-08-17T21:39:55.755Z,74.28
2022-08-17T21:42:26.631Z,74.54
2022-08-17T21:44:58.021Z,75.14
2022-08-17T21:47:28.080Z,75.48
2022-08-17T21:49:56.514Z,75.83
2022-08-17T21:52:27.092Z,76.01
2022-08-17T21:54:58.406Z,76.16
2022-08-17T21:57:28.372Z,76.29
2022-08-17T21:59:58.638Z,76.55
2022-08-17T22:02:35.225Z,76.39
2022-08-17T22:05:03.022Z,76.57
2022-08-17T22:07:40.159Z,76.66
2022-08-17T22:10:26.580Z,76.89
2022-08-17T22:13:16.735Z,77.03
2022-08-17T22:15:47.622Z,77.25
2022-08-17T22:18:26.859Z,77.46
2022-08-17T22:20:57.150Z,77.77
2022-08-17T22:23:49.852Z,78.23
2022-08-17T22:26:18.565Z,78.51
2022-08-17T22:28:50.809Z,78.66
2022-08-17T22:31:20.834Z,78.82
2022-08-17T22:34:04.475Z,78.90
2022-08-17T22:36:33.657Z,79.06
2022-08-17T22:39:04.693Z,79.13
2022-08-17T22:41:41.202Z,79.15
2022-08-17T22:44:23.648Z,79.28
2022-08-17T22:46:55.617Z,79.29
2022-08-17T22:49:29.240Z,79.38
2022-08-17T22:52:10.016Z,79.69
2022-08-17T22:54:55.205Z,79.93
2022-08-17T22:57:42.120Z,80.04
2022-08-17T23:00:39.468Z,80.49
2022-08-17T23:03:27.033Z,80.85
2022-08-17T23:06:11.313Z,81.14
2022-08-17T23:08:50.152Z,81.42
2022-08-17T23:11:17.141Z,81.91
2022-08-17T23:13:44.371Z,82.32
2022-08-17T23:16:11.545Z,83.00
2022-08-17T23:18:38.915Z,83.24
2022-08-17T23:21:09.092Z,83.20
2022-08-17T23:23:40.462Z,83.48
2022-08-17T23:26:11.355Z,83.95
2022-08-17T23:28:40.963Z,84.37
2022-08-17T23:31:16.750Z,84.57
2022-08-17T23:33:43.690Z,84.94
2022-08-17T23:36:15.353Z,85.25
2022-08-17T23:38:46.653Z,85.46
2022-08-17T23:41:20.420Z,85.60
2022-08-17T23:43:50.570Z,85.79
2022-08-17T23:46:18.051Z,85.86
2022-08-17T23:48:44.803Z,85.97
2022-08-17T23:51:18.984Z,85.96
2022-08-17T23:53:50.088Z,85.88
2022-08-17T23:56:23.561Z,86.28
2022-08-17T23:58:50.390Z,86.38
